Time;durP1;ratioP1;P1;durP2;ratioP2;P2;SDS_P1;SDS_P2;PMS_P1;PMS_P2;Temp;Humidity;BMP_temperature;BMP_pressure;BME280_temperature;BME280_humidity;BME280_pressure;Samples;Min_cycle;Max_cycle;Signal;HPM_P1;HPM_P2
2022/12/16 00:00:03;;;;;;;5.40;5.10;;;1.40;99.90;;;;;;5012335;28;20889;-65
2022/12/16 00:02:30;;;;;;;4.70;4.40;;;1.40;99.90;;;;;;5008225;28;20225;-62
2022/12/16 00:04:58;;;;;;;5.43;5.13;;;1.40;99.90;;;;;;5011218;28;20211;-63
2022/12/16 00:07:25;;;;;;;5.50;5.20;;;1.40;99.90;;;;;;5010261;28;20221;-63
2022/12/16 00:09:52;;;;;;;5.10;4.80;;;1.40;99.90;;;;;;5012814;28;20207;-64
2022/12/16 00:12:18;;;;;;;5.83;5.43;;;1.40;99.90;;;;;;5012198;28;20201;-64
2022/12/16 00:14:45;;;;;;;5.70;5.40;;;1.40;99.90;;;;;;5010323;28;20206;-64
2022/12/16 00:17:12;;;;;;;5.70;5.20;;;1.40;99.90;;;;;;5020516;28;20223;-65
2022/12/16 00:19:39;;;;;;;5.90;5.50;;;1.40;99.90;;;;;;5018351;28;20208;-65
2022/12/16 00:22:07;;;;;;;5.10;4.80;;;1.40;99.90;;;;;;5010892;28;20232;-63
2022/12/16 00:24:34;;;;;;;5.27;4.97;;;1.40;99.90;;;;;;5010593;28;20208;-65
2022/12/16 00:27:01;;;;;;;4.80;4.50;;;1.40;99.90;;;;;;5010641;28;20209;-66
2022/12/16 00:29:27;;;;;;;5.43;5.13;;;1.50;99.90;;;;;;5003820;28;20211;-63
2022/12/16 00:31:55;;;;;;;6.03;5.63;;;1.50;99.90;;;;;;5011356;28;20221;-62
2022/12/16 00:34:22;;;;;;;6.00;5.60;;;1.40;99.90;;;;;;5010612;28;20683;-62
2022/12/16 00:36:49;;;;;;;5.87;5.47;;;1.40;99.90;;;;;;5011258;28;20201;-63
2022/12/16 00:39:17;;;;;;;6.10;5.70;;;1.30;99.90;;;;;;5012123;28;20268;-63
2022/12/16 00:41:46;;;;;;;5.87;5.53;;;1.20;99.90;;;;;;5011982;28;20222;-62
2022/12/16 00:44:13;;;;;;;5.53;5.23;;;1.00;99.90;;;;;;5010281;28;20210;-63
2022/12/16 00:46:40;;;;;;;5.23;4.93;;;0.90;99.90;;;;;;5012121;28;20203;-63
2022/12/16 00:49:06;;;;;;;5.17;4.87;;;0.80;99.90;;;;;;5012312;28;20279;-63
2022/12/16 00:51:33;;;;;;;5.10;4.80;;;0.70;99.90;;;;;;5019755;28;20256;-63
2022/12/16 00:54:00;;;;;;;5.40;5.00;;;0.60;99.90;;;;;;5017901;28;20292;-64
2022/12/16 00:56:28;;;;;;;5.30;5.00;;;0.50;99.90;;;;;;5019617;28;20215;-64
2022/12/16 00:58:55;;;;;;;5.33;4.93;;;0.40;99.90;;;;;;5011516;28;20799;-63
2022/12/16 01:01:22;;;;;;;5.43;5.03;;;0.30;99.90;;;;;;5011927;28;20333;-63
2022/12/16 01:03:49;;;;;;;5.30;5.00;;;0.10;99.90;;;;;;5010994;28;20208;-64
2022/12/16 01:06:17;;;;;;;5.20;4.90;;;0.00;99.90;;;;;;5011567;28;20537;-66
2022/12/16 01:08:47;;;;;;;5.43;5.03;;;0.00;99.90;;;;;;5011529;28;20644;-64
2022/12/16 01:11:15;;;;;;;4.93;4.63;;;0.00;99.90;;;;;;5011829;28;20599;-64
2022/12/16 01:13:44;;;;;;;5.80;5.40;;;-0.10;99.90;;;;;;5021791;28;20201;-62
2022/12/16 01:16:11;;;;;;;5.03;4.73;;;-0.10;99.90;;;;;;5021698;28;20618;-63
2022/12/16 01:18:38;;;;;;;4.57;4.27;;;-0.10;99.90;;;;;;5011625;28;20272;-63
2022/12/16 01:21:06;;;;;;;5.10;4.78;;;0.10;99.90;;;;;;5012267;28;20221;-62
2022/12/16 01:23:33;;;;;;;4.90;4.60;;;0.20;99.90;;;;;;5012760;28;20201;-62
2022/12/16 01:26:01;;;;;;;4.73;4.33;;;0.30;99.90;;;;;;5011472;28;20204;-63
2022/12/16 01:28:28;;;;;;;4.40;4.10;;;0.40;99.90;;;;;;5012641;28;21039;-61
2022/12/16 01:31:00;;;;;;;4.90;4.60;;;0.50;99.90;;;;;;5011468;28;20212;-64
2022/12/16 01:33:27;;;;;;;4.00;3.80;;;0.60;99.90;;;;;;5010623;28;20197;-65
2022/12/16 01:35:59;;;;;;;4.43;4.13;;;0.70;99.90;;;;;;5010757;28;20271;-65
2022/12/16 01:38:26;;;;;;;4.93;4.63;;;0.80;99.90;;;;;;5011052;28;20296;-64
2022/12/16 01:40:53;;;;;;;4.70;4.40;;;0.80;99.90;;;;;;5011501;28;20201;-63
2022/12/16 01:43:24;;;;;;;5.13;4.73;;;0.80;99.90;;;;;;5010354;28;20204;-63
2022/12/16 01:45:53;;;;;;;4.97;4.67;;;0.80;99.90;;;;;;5011352;28;20201;-63
2022/12/16 01:48:30;;;;;;;5.20;4.90;;;0.70;99.90;;;;;;5011093;28;20229;-63
2022/12/16 01:51:02;;;;;;;4.83;4.53;;;0.70;99.90;;;;;;5007366;28;20517;-64
2022/12/16 01:53:30;;;;;;;5.07;4.77;;;0.70;99.90;;;;;;5005264;28;20273;-63
2022/12/16 01:55:58;;;;;;;4.63;4.33;;;0.60;99.90;;;;;;5008402;28;20211;-63
2022/12/16 01:58:27;;;;;;;4.87;4.57;;;0.70;99.90;;;;;;5011040;28;20682;-64
2022/12/16 02:00:54;;;;;;;4.80;4.50;;;0.70;99.90;;;;;;5010406;28;20661;-63
2022/12/16 02:03:22;;;;;;;4.83;4.53;;;0.80;99.90;;;;;;5010249;28;20212;-63
2022/12/16 02:05:50;;;;;;;4.63;4.33;;;0.80;99.90;;;;;;5011014;28;20235;-62
2022/12/16 02:08:18;;;;;;;4.67;4.37;;;0.80;99.90;;;;;;5022082;28;20228;-64
2022/12/16 02:10:58;;;;;;;4.70;4.40;;;0.80;99.90;;;;;;5022633;28;20312;-63
2022/12/16 02:13:35;;;;;;;5.23;4.93;;;0.80;99.90;;;;;;5010387;28;20236;-63
2022/12/16 02:16:08;;;;;;;4.90;4.60;;;0.60;99.90;;;;;;5010590;28;20213;-64
2022/12/16 02:18:47;;;;;;;4.63;4.33;;;0.60;99.90;;;;;;5003892;28;20232;-62
2022/12/16 02:21:33;;;;;;;4.43;4.20;;;0.50;99.90;;;;;;5010639;28;20223;-63
2022/12/16 02:24:36;;;;;;;4.77;4.47;;;0.40;99.90;;;;;;5023807;28;20228;-63
2022/12/16 02:27:29;;;;;;;4.73;4.43;;;0.40;99.90;;;;;;5009646;28;20692;-64
2022/12/16 02:30:08;;;;;;;4.47;4.23;;;0.30;99.90;;;;;;5010132;28;20209;-64
2022/12/16 02:32:48;;;;;;;4.30;4.00;;;0.30;99.90;;;;;;5003137;28;20596;-64
2022/12/16 02:35:24;;;;;;;4.53;4.23;;;0.40;99.90;;;;;;5008710;28;20212;-64
2022/12/16 02:37:57;;;;;;;4.00;3.80;;;0.60;99.90;;;;;;5010590;28;20320;-63
2022/12/16 02:40:32;;;;;;;4.60;4.30;;;0.60;99.90;;;;;;5015408;28;20216;-65
2022/12/16 02:43:03;;;;;;;4.43;4.17;;;0.60;99.90;;;;;;5015159;28;20208;-63
2022/12/16 02:45:31;;;;;;;4.73;4.43;;;0.70;99.90;;;;;;5006259;28;20686;-63
2022/12/16 02:47:59;;;;;;;4.63;4.33;;;0.70;99.90;;;;;;5013971;28;20233;-64
2022/12/16 02:50:32;;;;;;;4.27;4.07;;;0.70;99.90;;;;;;5015888;28;20201;-64
2022/12/16 02:53:01;;;;;;;3.97;3.67;;;0.80;99.90;;;;;;5017889;28;20207;-63
2022/12/16 02:55:35;;;;;;;4.43;4.13;;;0.80;99.90;;;;;;5016774;28;20209;-63
2022/12/16 02:58:16;;;;;;;4.20;4.00;;;0.80;99.90;;;;;;5016431;28;20604;-62
2022/12/16 03:00:52;;;;;;;4.40;4.10;;;0.90;99.90;;;;;;5010951;28;20296;-64
2022/12/16 03:03:24;;;;;;;4.40;4.20;;;0.90;99.90;;;;;;5014034;28;20265;-64
2022/12/16 03:05:52;;;;;;;4.60;4.30;;;0.90;99.90;;;;;;5014902;28;20224;-64
2022/12/16 03:08:25;;;;;;;4.10;3.90;;;0.90;99.90;;;;;;5014053;28;20244;-64
2022/12/16 03:10:57;;;;;;;4.40;4.10;;;1.00;99.90;;;;;;5015284;28;20725;-62
2022/12/16 03:13:25;;;;;;;4.20;3.97;;;1.00;99.90;;;;;;5015127;28;20587;-63
2022/12/16 03:15:56;;;;;;;4.57;4.27;;;1.00;99.90;;;;;;5015465;28;20654;-63
2022/12/16 03:18:25;;;;;;;4.10;3.80;;;0.90;99.90;;;;;;5015678;28;20240;-63
2022/12/16 03:20:55;;;;;;;4.67;4.37;;;0.80;99.90;;;;;;5015412;28;20204;-62
2022/12/16 03:23:27;;;;;;;4.40;4.20;;;0.70;99.90;;;;;;5013070;28;20221;-63
2022/12/16 03:26:01;;;;;;;4.07;3.87;;;0.60;99.90;;;;;;5016233;28;20743;-62
2022/12/16 03:28:39;;;;;;;4.13;3.83;;;0.60;99.90;;;;;;5006475;28;20221;-61
2022/12/16 03:31:16;;;;;;;4.00;3.80;;;0.60;99.90;;;;;;5010824;28;20256;-61
2022/12/16 03:33:50;;;;;;;4.17;3.87;;;0.60;99.90;;;;;;5018661;28;20227;-62
2022/12/16 03:36:21;;;;;;;4.53;4.23;;;0.60;99.90;;;;;;5027511;28;20216;-63
2022/12/16 03:38:50;;;;;;;3.60;3.40;;;0.70;99.90;;;;;;5015425;28;20225;-62
2022/12/16 03:41:18;;;;;;;4.03;3.80;;;0.70;99.90;;;;;;5013332;28;20221;-62
2022/12/16 03:43:45;;;;;;;4.10;3.80;;;0.70;99.90;;;;;;5007330;28;20204;-61
2022/12/16 03:46:12;;;;;;;4.10;3.80;;;0.70;99.90;;;;;;5013410;28;20201;-63
2022/12/16 03:48:47;;;;;;;4.00;3.80;;;0.70;99.90;;;;;;5013647;28;20235;-63
2022/12/16 03:51:15;;;;;;;3.73;3.53;;;0.70;99.90;;;;;;5011730;28;20209;-63
2022/12/16 03:53:42;;;;;;;3.80;3.60;;;0.80;99.90;;;;;;5013072;28;20209;-64
2022/12/16 03:56:09;;;;;;;4.40;4.10;;;0.80;99.90;;;;;;5020083;28;20317;-62
2022/12/16 03:58:37;;;;;;;4.13;3.93;;;0.80;99.90;;;;;;5030559;28;20289;-62
2022/12/16 04:01:04;;;;;;;3.60;3.40;;;0.90;99.90;;;;;;5031045;28;20297;-62
2022/12/16 04:03:31;;;;;;;4.60;4.30;;;0.80;99.90;;;;;;5026724;28;20221;-63
2022/12/16 04:05:59;;;;;;;4.07;3.87;;;0.80;99.90;;;;;;5022543;28;20218;-63
2022/12/16 04:08:26;;;;;;;4.30;4.00;;;0.90;99.90;;;;;;5021606;28;20248;-62
2022/12/16 04:24:40;;;;;;;3.93;3.70;;;0.80;99.90;;;;;;5016246;28;20208;-62
2022/12/16 04:27:26;;;;;;;3.80;3.60;;;0.70;99.90;;;;;;5013175;28;20682;-62
